Disclaimer

Please do not use the information listed here in-flight or in-navigation, as they are not provided to us by the airports but are provided by volunteers, so they might be outdated.

Search


Regions


Airport information page

Radio informations:
Automatic Terminal Information Service (ATIS) - 127.4 MHz

Airport informations:
Latitude: 62° 31' 41.25" N
Longitude: 017° 26' 38.14" E
Elevation: 16 feet - 5 meters
Operating hours: Remarks
Operating agency: Civil government, landing fees and diplomatic clearance may be required
Timezone: UTC+1(+2DT) - Last Sunday in March to last Sunday in October
Fuel: Jet A1, without icing nhibitor.

100/130 MIL Spec, low lead, aviation gasoline (BLUE)

Runway information:
16/34 - 6857 x 148 feet< - >2090 x 45 meters

Recent METARs:
ESNN 160820Z AUTO 31004KT 9999 OVC035/// M12/M14 Q1030
ESNN 160850Z AUTO 31004KT 9999 OVC032/// M12/M14 Q1030
ESNN 160920Z AUTO 31004KT 9999 OVC027/// M12/M13 Q1030

Airport on the map: